createdAt,value
2018-11-10T00:00:36.251Z,99.90
2018-11-10T00:03:05.806Z,99.90
2018-11-10T00:05:34.636Z,99.90
2018-11-10T00:08:04.537Z,99.90
2018-11-10T00:10:33.151Z,99.90
2018-11-10T00:13:01.818Z,99.90
2018-11-10T00:15:30.481Z,99.90
2018-11-10T00:17:59.958Z,99.90
2018-11-10T00:20:28.910Z,99.90
2018-11-10T00:22:57.550Z,99.90
2018-11-10T00:25:26.166Z,99.90
2018-11-10T00:27:54.743Z,99.90
2018-11-10T00:30:23.841Z,99.90
2018-11-10T00:32:52.520Z,99.90
2018-11-10T00:35:21.169Z,99.90
2018-11-10T00:37:49.846Z,99.90
2018-11-10T00:40:18.520Z,99.90
2018-11-10T00:42:47.217Z,99.90
2018-11-10T00:45:15.869Z,99.90
2018-11-10T00:47:44.472Z,99.90
2018-11-10T00:50:13.124Z,99.90
2018-11-10T00:52:41.781Z,99.90
2018-11-10T00:55:10.945Z,99.90
2018-11-10T00:57:39.649Z,99.90
2018-11-10T01:00:10.510Z,99.90
2018-11-10T01:02:39.133Z,99.90
2018-11-10T01:05:07.754Z,99.90
2018-11-10T01:07:36.417Z,99.90
2018-11-10T01:10:05.857Z,99.90
2018-11-10T01:12:34.537Z,99.90
2018-11-10T01:15:03.247Z,99.90
2018-11-10T01:17:31.912Z,99.90
2018-11-10T01:20:00.562Z,99.90
2018-11-10T01:22:29.280Z,99.90
2018-11-10T01:24:58.778Z,99.90
2018-11-10T01:27:27.433Z,99.90
2018-11-10T01:29:56.132Z,99.90
2018-11-10T01:32:24.770Z,99.90
2018-11-10T01:34:53.368Z,99.90
2018-11-10T01:37:22.001Z,99.90
2018-11-10T01:39:50.575Z,99.90
2018-11-10T01:42:19.168Z,99.90
2018-11-10T01:44:47.964Z,99.90
2018-11-10T01:47:16.553Z,99.90
2018-11-10T01:49:45.243Z,99.90
2018-11-10T01:52:13.929Z,99.90
2018-11-10T01:54:42.618Z,99.90
2018-11-10T01:57:11.911Z,99.90
2018-11-10T01:59:40.954Z,99.90
2018-11-10T02:02:09.777Z,99.90
2018-11-10T02:04:38.450Z,99.90
2018-11-10T02:07:07.067Z,99.90
2018-11-10T02:09:36.223Z,99.90
2018-11-10T02:12:04.963Z,99.90
2018-11-10T02:14:33.707Z,99.90
2018-11-10T02:17:02.395Z,99.90
2018-11-10T02:19:31.011Z,99.90
2018-11-10T02:22:00.355Z,99.90
2018-11-10T02:24:29.081Z,99.90
2018-11-10T02:26:57.756Z,99.90
2018-11-10T02:29:27.100Z,99.90
2018-11-10T02:31:55.831Z,99.90
2018-11-10T02:34:24.445Z,99.90
2018-11-10T02:36:53.066Z,99.90
2018-11-10T02:39:21.690Z,99.90
2018-11-10T02:41:50.249Z,99.90
2018-11-10T02:44:18.961Z,99.90
2018-11-10T02:46:47.661Z,99.90
2018-11-10T02:49:16.714Z,99.90
2018-11-10T02:51:45.990Z,99.90
2018-11-10T02:54:14.605Z,99.90
2018-11-10T02:56:43.190Z,99.90
2018-11-10T02:59:11.871Z,99.90
2018-11-10T03:01:40.495Z,99.90
2018-11-10T03:04:09.190Z,99.90
2018-11-10T03:06:38.470Z,99.90
2018-11-10T03:09:07.885Z,99.90
2018-11-10T03:11:36.627Z,99.90
2018-11-10T03:14:05.548Z,99.90
2018-11-10T03:16:34.171Z,99.90
2018-11-10T03:19:02.772Z,99.90
2018-11-10T03:21:31.573Z,99.90
2018-11-10T03:24:00.177Z,99.90
2018-11-10T03:26:28.793Z,99.90
2018-11-10T03:28:57.471Z,99.90
2018-11-10T03:31:26.162Z,99.90
2018-11-10T03:33:54.806Z,99.90
2018-11-10T03:36:23.484Z,99.90
2018-11-10T03:38:52.125Z,99.90
2018-11-10T03:41:20.839Z,99.90
2018-11-10T03:43:49.581Z,99.90
2018-11-10T03:46:18.243Z,99.90
2018-11-10T03:48:47.342Z,99.90
2018-11-10T03:51:15.941Z,99.90
2018-11-10T03:53:44.516Z,99.90
2018-11-10T03:56:13.121Z,99.90
2018-11-10T03:58:41.829Z,99.90
2018-11-10T04:01:10.496Z,99.90
2018-11-10T04:03:39.381Z,99.90
2018-11-10T04:06:08.038Z,99.90
2018-11-10T04:08:36.694Z,99.90
2018-11-10T04:11:05.474Z,99.90
2018-11-10T04:13:34.488Z,99.90
2018-11-10T04:16:03.093Z,99.90
2018-11-10T04:18:31.762Z,99.90
2018-11-10T04:21:00.533Z,99.90
2018-11-10T04:23:29.148Z,99.90
2018-11-10T04:25:57.851Z,99.90
2018-11-10T04:28:26.672Z,99.90
2018-11-10T04:30:55.319Z,99.90
2018-11-10T04:33:23.975Z,99.90
2018-11-10T04:35:52.575Z,99.90
2018-11-10T04:38:21.201Z,99.90
2018-11-10T04:40:50.106Z,99.90
2018-11-10T04:43:18.819Z,99.90
2018-11-10T04:45:47.434Z,99.90
2018-11-10T04:48:16.527Z,99.90
2018-11-10T04:50:45.151Z,99.90
2018-11-10T04:53:13.744Z,99.90
2018-11-10T04:55:42.407Z,99.90
2018-11-10T04:58:11.029Z,99.90
2018-11-10T05:00:39.692Z,99.90
2018-11-10T05:03:09.052Z,99.90
2018-11-10T05:05:37.682Z,99.90
2018-11-10T05:08:06.701Z,99.90
2018-11-10T05:10:35.449Z,99.90
2018-11-10T05:13:04.191Z,99.90
2018-11-10T05:15:32.873Z,99.90
2018-11-10T05:18:01.495Z,99.90
2018-11-10T05:20:30.129Z,99.90
2018-11-10T05:22:58.787Z,99.90
2018-11-10T05:25:27.470Z,99.90
2018-11-10T05:27:56.082Z,99.90
2018-11-10T05:30:24.753Z,99.90
2018-11-10T05:32:53.427Z,99.90
2018-11-10T05:35:22.014Z,99.90
2018-11-10T05:37:50.601Z,99.90
2018-11-10T05:40:19.275Z,99.90
2018-11-10T05:42:48.545Z,99.90
2018-11-10T05:45:17.162Z,99.90
2018-11-10T05:47:46.139Z,99.90
2018-11-10T05:50:14.732Z,99.90
2018-11-10T05:52:46.374Z,99.90
2018-11-10T05:55:14.973Z,99.90
2018-11-10T05:57:43.612Z,99.90
2018-11-10T06:00:13.434Z,99.90
2018-11-10T06:02:42.743Z,99.90
2018-11-10T06:05:11.985Z,99.90
2018-11-10T06:07:40.637Z,99.90
2018-11-10T06:10:10.948Z,99.90
2018-11-10T06:12:39.485Z,99.90
2018-11-10T06:15:08.663Z,99.90
2018-11-10T06:17:37.514Z,99.90
2018-11-10T06:20:07.693Z,99.90
2018-11-10T06:22:36.429Z,99.90
2018-11-10T06:25:06.172Z,99.90
2018-11-10T06:27:35.150Z,99.90
2018-11-10T06:30:03.868Z,99.90
2018-11-10T06:32:32.759Z,99.90
2018-11-10T06:35:01.604Z,99.90
2018-11-10T06:37:30.488Z,99.90
2018-11-10T06:39:59.405Z,99.90
2018-11-10T06:42:28.415Z,99.90
2018-11-10T06:44:57.069Z,99.90
2018-11-10T06:47:26.120Z,99.90
2018-11-10T06:49:54.914Z,99.90
2018-11-10T06:52:23.549Z,99.90
2018-11-10T06:54:52.222Z,99.90
2018-11-10T06:57:20.956Z,99.90
2018-11-10T06:59:49.801Z,99.90
2018-11-10T07:02:18.522Z,99.90
2018-11-10T07:04:47.222Z,99.90
2018-11-10T07:07:15.893Z,99.90
2018-11-10T07:09:44.571Z,99.90
2018-11-10T07:12:13.331Z,99.90
2018-11-10T07:14:42.011Z,99.90
2018-11-10T07:17:10.887Z,99.90
2018-11-10T07:19:39.710Z,99.90
2018-11-10T07:22:08.539Z,99.90
2018-11-10T07:24:37.904Z,99.90
2018-11-10T07:27:06.801Z,99.90
2018-11-10T07:29:35.521Z,99.90
2018-11-10T07:32:04.288Z,99.90
2018-11-10T07:34:33.091Z,99.90
2018-11-10T07:37:01.862Z,99.90
2018-11-10T07:39:30.615Z,99.90
2018-11-10T07:42:00.731Z,99.90
2018-11-10T07:44:29.772Z,99.90
2018-11-10T07:46:58.411Z,99.90
2018-11-10T07:49:27.196Z,99.90
2018-11-10T07:51:56.039Z,99.90
2018-11-10T07:54:24.743Z,99.90
2018-11-10T07:56:53.491Z,99.90
2018-11-10T07:59:22.357Z,99.90
2018-11-10T08:01:51.120Z,99.90
2018-11-10T08:04:19.899Z,99.90
2018-11-10T08:06:49.276Z,99.90
2018-11-10T08:09:17.955Z,99.90
2018-11-10T08:11:46.716Z,99.90
2018-11-10T08:14:15.409Z,99.90
2018-11-10T08:16:44.269Z,99.90
2018-11-10T08:19:12.960Z,99.90
2018-11-10T08:21:41.694Z,99.90
2018-11-10T08:24:10.391Z,99.90
2018-11-10T08:26:39.669Z,99.90
2018-11-10T08:29:08.312Z,99.90
2018-11-10T08:31:36.929Z,99.90
2018-11-10T08:34:05.544Z,99.90
2018-11-10T08:36:34.170Z,99.90
2018-11-10T08:39:02.871Z,99.90
2018-11-10T08:41:31.424Z,99.20
2018-11-10T08:44:00.013Z,99.90
2018-11-10T08:46:28.634Z,95.90
2018-11-10T08:48:57.806Z,94.30
2018-11-10T08:51:26.669Z,92.80
2018-11-10T08:53:55.460Z,90.20
2018-11-10T08:56:23.999Z,84.50
2018-11-10T08:58:52.611Z,77.50
2018-11-10T09:01:21.174Z,78.50
2018-11-10T09:03:49.711Z,80.90
2018-11-10T09:06:18.312Z,73.80
2018-11-10T09:08:46.874Z,72.90
2018-11-10T09:11:15.481Z,74.90
2018-11-10T09:13:44.030Z,70.60
2018-11-10T09:16:12.615Z,69.70
2018-11-10T09:18:41.365Z,67.50
2018-11-10T09:21:09.980Z,62.10
2018-11-10T09:23:38.677Z,65.20
2018-11-10T09:26:07.251Z,62.80
2018-11-10T09:28:36.290Z,62.10
2018-11-10T09:31:05.137Z,61.50
2018-11-10T09:33:34.304Z,59.80
2018-11-10T09:36:02.908Z,59.20
2018-11-10T09:38:31.482Z,60.30
2018-11-10T09:41:00.778Z,58.80
2018-11-10T09:43:29.309Z,59.00
2018-11-10T09:45:58.061Z,58.40
2018-11-10T09:48:26.601Z,57.80
2018-11-10T09:50:55.359Z,59.70
2018-11-10T09:53:23.814Z,57.60
2018-11-10T09:55:52.350Z,59.40
2018-11-10T09:58:20.974Z,57.80
2018-11-10T10:00:49.571Z,59.30
2018-11-10T10:03:18.174Z,57.30
2018-11-10T10:05:46.755Z,58.00
2018-11-10T10:08:15.560Z,56.10
2018-11-10T10:10:44.173Z,57.20
2018-11-10T10:13:13.661Z,54.30
2018-11-10T10:15:42.194Z,56.50
2018-11-10T10:18:10.753Z,58.40
2018-11-10T10:20:39.937Z,56.80
2018-11-10T10:23:08.514Z,55.50
2018-11-10T10:25:37.262Z,55.00
2018-11-10T10:28:06.063Z,56.30
2018-11-10T10:30:34.844Z,55.00
2018-11-10T10:33:03.489Z,53.90
2018-11-10T10:35:32.807Z,54.00
2018-11-10T10:38:01.322Z,55.10
2018-11-10T10:40:29.932Z,53.90
2018-11-10T10:42:58.600Z,52.70
2018-11-10T10:45:27.181Z,53.40
2018-11-10T10:47:55.878Z,53.90
2018-11-10T10:50:24.562Z,51.70
2018-11-10T10:52:53.109Z,51.40
2018-11-10T10:55:21.688Z,50.40
2018-11-10T10:57:50.811Z,53.20
2018-11-10T11:00:24.684Z,51.00
2018-11-10T11:02:58.759Z,49.20
2018-11-10T11:05:49.041Z,48.40
2018-11-10T11:08:17.643Z,48.00
2018-11-10T11:10:46.217Z,49.20
2018-11-10T11:13:15.501Z,50.20
2018-11-10T11:15:44.127Z,49.60
2018-11-10T11:18:12.657Z,50.00
2018-11-10T11:20:41.215Z,50.10
2018-11-10T11:23:09.764Z,49.10
2018-11-10T11:25:38.380Z,49.20
2018-11-10T11:28:07.058Z,48.10
2018-11-10T11:30:35.622Z,49.00
2018-11-10T11:33:04.148Z,47.30
2018-11-10T11:35:32.678Z,47.10
2018-11-10T11:38:01.371Z,48.70
2018-11-10T11:40:29.928Z,47.00
2018-11-10T11:42:58.457Z,46.50
2018-11-10T11:45:27.368Z,44.80
2018-11-10T11:47:56.650Z,48.30
2018-11-10T11:50:25.202Z,49.50
2018-11-10T11:52:53.761Z,46.30
2018-11-10T11:55:22.254Z,45.50
2018-11-10T11:57:51.077Z,44.60
2018-11-10T12:00:19.510Z,45.60
2018-11-10T12:02:48.689Z,46.20
2018-11-10T12:05:18.478Z,46.20
2018-11-10T12:07:47.589Z,47.30
2018-11-10T12:10:16.899Z,45.50
2018-11-10T12:12:45.441Z,46.10
2018-11-10T12:15:15.259Z,46.60
2018-11-10T12:17:44.437Z,45.90
2018-11-10T12:20:14.329Z,44.80
2018-11-10T12:22:43.203Z,43.80
2018-11-10T12:25:12.757Z,43.40
2018-11-10T12:27:41.985Z,41.50
2018-11-10T12:30:11.164Z,40.70
2018-11-10T12:32:40.898Z,42.00
2018-11-10T12:35:11.486Z,40.50
2018-11-10T12:37:40.039Z,39.70
2018-11-10T12:40:10.759Z,38.10
2018-11-10T12:42:40.073Z,39.10
2018-11-10T12:45:10.460Z,36.60
2018-11-10T12:47:39.877Z,36.10
2018-11-10T12:50:10.175Z,38.40
2018-11-10T12:52:38.765Z,37.10
2018-11-10T12:55:08.795Z,35.90
2018-11-10T12:57:37.361Z,35.80
2018-11-10T13:00:07.202Z,37.00
2018-11-10T13:02:36.272Z,39.40
2018-11-10T13:05:05.864Z,39.50
2018-11-10T13:07:34.501Z,41.00
2018-11-10T13:10:03.601Z,42.60
2018-11-10T13:12:32.241Z,41.40
2018-11-10T13:15:00.772Z,44.00
2018-11-10T13:17:29.424Z,44.20
2018-11-10T13:19:57.919Z,45.70
2018-11-10T13:22:27.217Z,44.00
2018-11-10T13:24:55.833Z,44.50
2018-11-10T13:27:25.251Z,45.70
2018-11-10T13:29:53.906Z,46.50
2018-11-10T13:32:22.597Z,47.30
2018-11-10T13:34:51.699Z,49.40
2018-11-10T13:37:20.317Z,49.50
2018-11-10T13:39:48.902Z,50.40
2018-11-10T13:42:17.476Z,50.80
2018-11-10T13:44:46.137Z,51.20
2018-11-10T13:47:14.846Z,51.60
2018-11-10T13:49:43.632Z,52.80
2018-11-10T13:52:12.537Z,53.70
2018-11-10T13:54:41.067Z,53.90
2018-11-10T13:57:10.361Z,54.60
2018-11-10T13:59:39.138Z,55.10
2018-11-10T14:02:07.756Z,55.60
2018-11-10T14:04:36.744Z,55.80
2018-11-10T14:07:05.735Z,57.10
2018-11-10T14:09:34.431Z,57.40
2018-11-10T14:12:03.189Z,58.40
2018-11-10T14:14:32.089Z,58.60
2018-11-10T14:17:01.781Z,59.20
2018-11-10T14:19:30.628Z,59.60
2018-11-10T14:21:59.281Z,61.20
2018-11-10T14:24:28.576Z,63.00
2018-11-10T14:26:57.167Z,62.90
2018-11-10T14:29:27.061Z,63.60
2018-11-10T14:31:55.634Z,64.40
2018-11-10T14:34:24.938Z,66.00
2018-11-10T14:36:53.544Z,66.60
2018-11-10T14:39:22.215Z,68.70
2018-11-10T14:41:50.886Z,68.70
2018-11-10T14:44:19.606Z,68.60
2018-11-10T14:46:48.764Z,68.40
2018-11-10T14:49:17.633Z,68.40
2018-11-10T14:51:46.304Z,69.60
2018-11-10T14:54:14.895Z,68.90
2018-11-10T14:56:43.530Z,70.20
2018-11-10T14:59:12.141Z,71.50
2018-11-10T15:01:41.584Z,71.90
2018-11-10T15:04:10.153Z,73.10
2018-11-10T15:06:38.885Z,73.90
2018-11-10T15:09:09.345Z,73.30
2018-11-10T15:11:38.090Z,74.00
2018-11-10T15:14:07.351Z,73.70
2018-11-10T15:16:36.118Z,73.80
2018-11-10T15:19:04.950Z,74.30
2018-11-10T15:21:35.383Z,74.70
2018-11-10T15:24:05.031Z,75.20
2018-11-10T15:26:33.716Z,75.40
2018-11-10T15:29:09.075Z,76.20
2018-11-10T15:31:40.633Z,76.70
2018-11-10T15:34:11.346Z,77.50
2018-11-10T15:36:39.898Z,79.20
2018-11-10T15:39:10.328Z,79.90
2018-11-10T15:41:40.752Z,83.60
2018-11-10T15:44:10.368Z,83.40
2018-11-10T15:46:39.101Z,84.00
2018-11-10T15:49:09.288Z,85.00
2018-11-10T15:51:39.824Z,86.10
2018-11-10T15:54:09.282Z,87.10
2018-11-10T15:56:41.208Z,90.10
2018-11-10T15:59:10.362Z,90.80
2018-11-10T16:01:39.761Z,91.00
2018-11-10T16:04:08.305Z,92.40
2018-11-10T16:06:36.913Z,93.30
2018-11-10T16:09:08.876Z,93.90
2018-11-10T16:11:37.393Z,95.30
2018-11-10T16:14:06.133Z,95.60
2018-11-10T16:16:34.713Z,96.00
2018-11-10T16:19:03.387Z,96.40
2018-11-10T16:21:32.854Z,97.50
2018-11-10T16:24:01.401Z,99.90
2018-11-10T16:26:30.021Z,99.90
2018-11-10T16:28:59.111Z,99.90
2018-11-10T16:31:29.481Z,99.90
2018-11-10T16:33:58.514Z,99.90
2018-11-10T16:36:28.102Z,99.90
2018-11-10T16:38:56.715Z,99.90
2018-11-10T16:41:25.257Z,99.90
2018-11-10T16:43:53.904Z,99.90
2018-11-10T16:46:23.302Z,99.90
2018-11-10T16:48:51.909Z,99.90
2018-11-10T16:51:20.674Z,99.90
2018-11-10T16:53:50.940Z,99.90
2018-11-10T16:56:20.478Z,99.90
2018-11-10T16:58:49.305Z,99.90
2018-11-10T17:01:18.920Z,99.90
2018-11-10T17:03:47.457Z,99.90
2018-11-10T17:06:15.989Z,99.90
2018-11-10T17:08:44.550Z,99.90
2018-11-10T17:11:13.230Z,99.90
2018-11-10T17:13:42.093Z,99.90
2018-11-10T17:16:10.594Z,99.90
2018-11-10T17:18:39.170Z,99.90
2018-11-10T17:21:07.728Z,99.90
2018-11-10T17:23:36.306Z,99.90
2018-11-10T17:26:04.926Z,99.90
2018-11-10T17:28:33.487Z,99.90
2018-11-10T17:31:02.081Z,99.90
2018-11-10T17:33:31.112Z,99.90
2018-11-10T17:36:00.341Z,99.90
2018-11-10T17:38:29.012Z,99.90
2018-11-10T17:40:58.546Z,99.90
2018-11-10T17:43:27.773Z,99.90
2018-11-10T17:45:57.099Z,99.90
2018-11-10T17:48:31.045Z,99.90
2018-11-10T17:50:59.749Z,99.90
2018-11-10T17:53:28.352Z,99.90
2018-11-10T17:55:57.153Z,99.90
2018-11-10T17:58:25.737Z,99.90
2018-11-10T18:00:54.615Z,99.90
2018-11-10T18:03:24.191Z,99.90
2018-11-10T18:05:52.716Z,99.90
2018-11-10T18:08:21.462Z,99.90
2018-11-10T18:10:50.913Z,99.90
2018-11-10T18:13:21.886Z,99.90
2018-11-10T18:15:50.561Z,99.90
2018-11-10T18:18:19.129Z,99.90
2018-11-10T18:20:48.874Z,99.90
2018-11-10T18:23:18.968Z,99.90
2018-11-10T18:25:47.528Z,99.90
2018-11-10T18:28:16.133Z,99.90
2018-11-10T18:30:44.695Z,99.90
2018-11-10T18:33:13.268Z,99.90
2018-11-10T18:35:42.771Z,99.90
2018-11-10T18:38:14.585Z,99.90
2018-11-10T18:40:46.382Z,99.90
2018-11-10T18:43:18.967Z,99.90
2018-11-10T18:45:51.413Z,99.90
2018-11-10T18:48:27.538Z,99.90
2018-11-10T18:50:59.352Z,99.90
2018-11-10T18:53:28.051Z,99.90
2018-11-10T18:55:57.374Z,99.90
2018-11-10T18:58:25.997Z,99.90
2018-11-10T19:00:54.916Z,99.90
2018-11-10T19:03:23.679Z,99.90
2018-11-10T19:05:52.333Z,99.90
2018-11-10T19:08:20.970Z,99.90
2018-11-10T19:10:49.734Z,99.90
2018-11-10T19:13:18.294Z,99.90
2018-11-10T19:15:47.038Z,99.90
2018-11-10T19:18:15.717Z,99.90
2018-11-10T19:20:44.303Z,99.90
2018-11-10T19:23:13.660Z,99.90
2018-11-10T19:25:42.284Z,99.90
2018-11-10T19:28:12.366Z,99.90
2018-11-10T19:30:40.988Z,99.90
2018-11-10T19:33:09.715Z,99.90
2018-11-10T19:35:38.262Z,99.90
2018-11-10T19:38:07.620Z,99.90
2018-11-10T19:40:36.233Z,99.90
2018-11-10T19:43:05.183Z,99.90
2018-11-10T19:45:33.786Z,99.90
2018-11-10T19:48:02.437Z,99.90
2018-11-10T19:50:31.186Z,99.90
2018-11-10T19:52:59.636Z,99.90
2018-11-10T19:55:28.165Z,99.90
2018-11-10T19:57:57.661Z,99.90
2018-11-10T20:00:28.604Z,99.90
2018-11-10T20:02:59.648Z,99.90
2018-11-10T20:05:28.327Z,99.90
2018-11-10T20:07:57.958Z,99.90
2018-11-10T20:10:26.557Z,99.90
2018-11-10T20:12:56.399Z,99.90
2018-11-10T20:15:25.061Z,99.90
2018-11-10T20:17:56.372Z,99.90
2018-11-10T20:20:24.981Z,99.90
2018-11-10T20:22:59.590Z,99.90
2018-11-10T20:25:28.329Z,99.90
2018-11-10T20:27:58.569Z,99.90
2018-11-10T20:30:28.237Z,99.90
2018-11-10T20:32:56.873Z,99.90
2018-11-10T20:35:25.489Z,99.90
2018-11-10T20:37:54.657Z,99.90
2018-11-10T20:40:23.907Z,99.90
2018-11-10T20:42:52.641Z,99.90
2018-11-10T20:45:22.170Z,99.90
2018-11-10T20:47:53.061Z,99.90
2018-11-10T20:50:21.713Z,99.90
2018-11-10T20:52:50.361Z,99.90
2018-11-10T20:55:18.917Z,99.90
2018-11-10T20:57:48.496Z,99.90
2018-11-10T21:00:18.754Z,99.90
2018-11-10T21:02:47.358Z,99.90
2018-11-10T21:05:16.949Z,99.90
2018-11-10T21:07:45.849Z,99.90
2018-11-10T21:10:17.505Z,99.90
2018-11-10T21:12:48.049Z,99.90
2018-11-10T21:15:17.165Z,99.90
2018-11-10T21:17:46.840Z,99.90
2018-11-10T21:20:23.073Z,99.90
2018-11-10T21:22:51.626Z,99.90
2018-11-10T21:25:21.704Z,99.90
2018-11-10T21:27:50.317Z,99.90
2018-11-10T21:30:20.818Z,99.90
2018-11-10T21:32:49.854Z,99.90
2018-11-10T21:35:18.559Z,99.90
2018-11-10T21:37:47.377Z,99.90
2018-11-10T21:40:19.467Z,99.90
2018-11-10T21:42:48.017Z,99.90
2018-11-10T21:45:17.448Z,99.90
2018-11-10T21:47:46.314Z,99.90
2018-11-10T21:50:16.748Z,99.90
2018-11-10T21:52:49.046Z,99.90
2018-11-10T21:55:18.983Z,99.90
2018-11-10T21:57:49.381Z,99.90
2018-11-10T22:00:19.907Z,99.90
2018-11-10T22:02:49.585Z,99.90
2018-11-10T22:05:18.490Z,99.90
2018-11-10T22:07:47.112Z,99.90
2018-11-10T22:10:16.887Z,99.90
2018-11-10T22:12:45.792Z,99.90
2018-11-10T22:15:17.167Z,99.90
2018-11-10T22:17:46.245Z,99.90
2018-11-10T22:20:16.340Z,99.90
2018-11-10T22:22:45.160Z,99.90
2018-11-10T22:25:14.169Z,99.90
2018-11-10T22:27:43.929Z,99.90
2018-11-10T22:30:13.938Z,99.90
2018-11-10T22:32:43.134Z,99.90
2018-11-10T22:35:12.133Z,99.90
2018-11-10T22:37:40.876Z,99.90
2018-11-10T22:40:12.069Z,99.90
2018-11-10T22:42:41.192Z,99.90
2018-11-10T22:45:11.837Z,99.90
2018-11-10T22:47:41.751Z,99.90
2018-11-10T22:50:13.393Z,99.90
2018-11-10T22:52:45.296Z,99.90
2018-11-10T22:55:14.594Z,99.90
2018-11-10T22:57:43.372Z,99.90
2018-11-10T23:00:16.465Z,99.90
2018-11-10T23:02:47.501Z,99.90
2018-11-10T23:05:16.691Z,99.90
2018-11-10T23:07:45.257Z,99.90
2018-11-10T23:10:14.534Z,99.90
2018-11-10T23:12:44.068Z,99.90
2018-11-10T23:15:12.641Z,99.90
2018-11-10T23:17:41.558Z,99.90
2018-11-10T23:20:11.857Z,99.90
2018-11-10T23:22:41.189Z,99.90
2018-11-10T23:25:14.366Z,99.90
2018-11-10T23:27:42.967Z,99.90
2018-11-10T23:30:14.473Z,99.90
2018-11-10T23:32:43.054Z,99.90
2018-11-10T23:35:12.354Z,99.90
2018-11-10T23:37:41.423Z,99.90
2018-11-10T23:40:12.200Z,99.90
2018-11-10T23:42:41.353Z,99.90
2018-11-10T23:45:10.596Z,99.90
2018-11-10T23:47:39.553Z,99.90
2018-11-10T23:50:10.329Z,99.90
2018-11-10T23:52:39.474Z,99.90
2018-11-10T23:55:09.026Z,99.90
2018-11-10T23:57:37.648Z,99.90
